sensor_id;sensor_type;location;lat;lon;timestamp;P1;durP1;ratioP1;P2;durP2;ratioP2
62673;SDS011;62269;47.594;17.638;2023-07-02T00:00:31;10.15;;;9.05;;
62673;SDS011;62269;47.594;17.638;2023-07-02T00:01:28;11.15;;;9.65;;
62673;SDS011;62269;47.594;17.638;2023-07-02T00:02:25;12.65;;;8.80;;
62673;SDS011;62269;47.594;17.638;2023-07-02T00:03:22;11.82;;;9.35;;
62673;SDS011;62269;47.594;17.638;2023-07-02T00:04:20;13.00;;;9.68;;
62673;SDS011;62269;47.594;17.638;2023-07-02T00:05:17;13.20;;;9.40;;
62673;SDS011;62269;47.594;17.638;2023-07-02T00:06:14;11.85;;;9.50;;
62673;SDS011;62269;47.594;17.638;2023-07-02T00:07:13;12.20;;;9.32;;
62673;SDS011;62269;47.594;17.638;2023-07-02T00:08:11;19.23;;;10.00;;
62673;SDS011;62269;47.594;17.638;2023-07-02T00:09:08;15.32;;;11.18;;
62673;SDS011;62269;47.594;17.638;2023-07-02T00:10:07;12.98;;;10.18;;
62673;SDS011;62269;47.594;17.638;2023-07-02T00:11:04;12.10;;;9.20;;
62673;SDS011;62269;47.594;17.638;2023-07-02T00:12:01;13.35;;;9.85;;
62673;SDS011;62269;47.594;17.638;2023-07-02T00:12:58;15.20;;;10.27;;
62673;SDS011;62269;47.594;17.638;2023-07-02T00:13:55;12.25;;;9.40;;
62673;SDS011;62269;47.594;17.638;2023-07-02T00:14:52;11.12;;;9.93;;
62673;SDS011;62269;47.594;17.638;2023-07-02T00:15:49;13.15;;;9.80;;
62673;SDS011;62269;47.594;17.638;2023-07-02T00:16:46;13.90;;;9.88;;
62673;SDS011;62269;47.594;17.638;2023-07-02T00:17:43;13.50;;;9.30;;
62673;SDS011;62269;47.594;17.638;2023-07-02T00:18:40;10.75;;;9.65;;
62673;SDS011;62269;47.594;17.638;2023-07-02T00:19:38;11.38;;;9.73;;
62673;SDS011;62269;47.594;17.638;2023-07-02T00:21:35;10.32;;;9.15;;
62673;SDS011;62269;47.594;17.638;2023-07-02T00:22:35;10.98;;;9.13;;
62673;SDS011;62269;47.594;17.638;2023-07-02T00:23:32;15.20;;;9.48;;
62673;SDS011;62269;47.594;17.638;2023-07-02T00:24:29;13.75;;;9.75;;
62673;SDS011;62269;47.594;17.638;2023-07-02T00:25:26;12.00;;;9.10;;
62673;SDS011;62269;47.594;17.638;2023-07-02T00:26:24;12.95;;;9.93;;
62673;SDS011;62269;47.594;17.638;2023-07-02T00:27:24;10.57;;;9.48;;
62673;SDS011;62269;47.594;17.638;2023-07-02T00:28:20;10.27;;;9.20;;
62673;SDS011;62269;47.594;17.638;2023-07-02T00:29:17;12.60;;;9.48;;
62673;SDS011;62269;47.594;17.638;2023-07-02T00:30:14;12.57;;;9.43;;
62673;SDS011;62269;47.594;17.638;2023-07-02T00:31:11;12.80;;;10.00;;
62673;SDS011;62269;47.594;17.638;2023-07-02T00:32:08;12.05;;;9.57;;
62673;SDS011;62269;47.594;17.638;2023-07-02T00:33:05;13.77;;;9.02;;
62673;SDS011;62269;47.594;17.638;2023-07-02T00:34:03;13.32;;;9.35;;
62673;SDS011;62269;47.594;17.638;2023-07-02T00:35:00;11.88;;;9.20;;
62673;SDS011;62269;47.594;17.638;2023-07-02T00:35:57;12.23;;;9.38;;
62673;SDS011;62269;47.594;17.638;2023-07-02T00:36:57;13.23;;;9.30;;
62673;SDS011;62269;47.594;17.638;2023-07-02T00:37:54;11.98;;;8.90;;
62673;SDS011;62269;47.594;17.638;2023-07-02T00:38:51;13.90;;;9.65;;
62673;SDS011;62269;47.594;17.638;2023-07-02T00:39:48;12.07;;;9.88;;
62673;SDS011;62269;47.594;17.638;2023-07-02T00:40:45;10.90;;;9.70;;
62673;SDS011;62269;47.594;17.638;2023-07-02T00:41:43;12.40;;;9.52;;
62673;SDS011;62269;47.594;17.638;2023-07-02T00:42:42;14.43;;;9.68;;
62673;SDS011;62269;47.594;17.638;2023-07-02T00:43:39;13.45;;;9.90;;
62673;SDS011;62269;47.594;17.638;2023-07-02T00:44:40;12.27;;;9.32;;
62673;SDS011;62269;47.594;17.638;2023-07-02T00:45:37;10.77;;;9.25;;
62673;SDS011;62269;47.594;17.638;2023-07-02T00:46:36;13.13;;;9.38;;
62673;SDS011;62269;47.594;17.638;2023-07-02T00:47:34;12.00;;;10.75;;
62673;SDS011;62269;47.594;17.638;2023-07-02T00:48:31;11.93;;;9.70;;
62673;SDS011;62269;47.594;17.638;2023-07-02T00:49:29;13.57;;;10.48;;
62673;SDS011;62269;47.594;17.638;2023-07-02T00:50:25;12.73;;;9.38;;
62673;SDS011;62269;47.594;17.638;2023-07-02T00:51:24;11.40;;;10.15;;
62673;SDS011;62269;47.594;17.638;2023-07-02T00:52:22;11.55;;;9.85;;
62673;SDS011;62269;47.594;17.638;2023-07-02T00:53:20;10.32;;;9.32;;
62673;SDS011;62269;47.594;17.638;2023-07-02T00:54:17;16.75;;;10.88;;
62673;SDS011;62269;47.594;17.638;2023-07-02T00:55:14;11.10;;;9.88;;
62673;SDS011;62269;47.594;17.638;2023-07-02T00:56:12;11.95;;;9.55;;
62673;SDS011;62269;47.594;17.638;2023-07-02T00:57:09;12.45;;;9.82;;
62673;SDS011;62269;47.594;17.638;2023-07-02T00:58:06;10.52;;;9.13;;
62673;SDS011;62269;47.594;17.638;2023-07-02T00:59:04;11.10;;;9.68;;
62673;SDS011;62269;47.594;17.638;2023-07-02T01:00:03;12.98;;;9.18;;
62673;SDS011;62269;47.594;17.638;2023-07-02T01:01:00;10.40;;;9.30;;
62673;SDS011;62269;47.594;17.638;2023-07-02T01:01:57;10.80;;;9.65;;
62673;SDS011;62269;47.594;17.638;2023-07-02T01:02:55;13.20;;;9.70;;
62673;SDS011;62269;47.594;17.638;2023-07-02T01:03:57;12.95;;;9.05;;
62673;SDS011;62269;47.594;17.638;2023-07-02T01:05:01;12.73;;;9.90;;
62673;SDS011;62269;47.594;17.638;2023-07-02T01:05:59;10.00;;;8.93;;
62673;SDS011;62269;47.594;17.638;2023-07-02T01:06:59;10.40;;;9.30;;
62673;SDS011;62269;47.594;17.638;2023-07-02T01:07:56;12.80;;;8.82;;
62673;SDS011;62269;47.594;17.638;2023-07-02T01:08:54;11.95;;;9.32;;
62673;SDS011;62269;47.594;17.638;2023-07-02T01:09:52;13.18;;;9.43;;
62673;SDS011;62269;47.594;17.638;2023-07-02T01:10:48;13.20;;;9.82;;
62673;SDS011;62269;47.594;17.638;2023-07-02T01:11:48;13.10;;;9.40;;
62673;SDS011;62269;47.594;17.638;2023-07-02T01:13:43;14.20;;;9.65;;
62673;SDS011;62269;47.594;17.638;2023-07-02T01:14:45;10.88;;;9.50;;
62673;SDS011;62269;47.594;17.638;2023-07-02T01:15:45;14.95;;;8.80;;
62673;SDS011;62269;47.594;17.638;2023-07-02T01:16:42;13.55;;;9.05;;
62673;SDS011;62269;47.594;17.638;2023-07-02T01:17:40;11.55;;;8.75;;
62673;SDS011;62269;47.594;17.638;2023-07-02T01:18:38;12.43;;;8.55;;
62673;SDS011;62269;47.594;17.638;2023-07-02T01:19:43;13.13;;;9.13;;
62673;SDS011;62269;47.594;17.638;2023-07-02T01:20:41;14.85;;;10.25;;
62673;SDS011;62269;47.594;17.638;2023-07-02T01:21:39;11.98;;;9.13;;
62673;SDS011;62269;47.594;17.638;2023-07-02T01:22:36;11.98;;;9.13;;
62673;SDS011;62269;47.594;17.638;2023-07-02T01:23:33;16.77;;;9.75;;
62673;SDS011;62269;47.594;17.638;2023-07-02T01:24:30;12.48;;;9.02;;
62673;SDS011;62269;47.594;17.638;2023-07-02T01:25:27;18.90;;;9.82;;
62673;SDS011;62269;47.594;17.638;2023-07-02T01:26:24;12.45;;;9.48;;
62673;SDS011;62269;47.594;17.638;2023-07-02T01:27:27;12.18;;;9.02;;
62673;SDS011;62269;47.594;17.638;2023-07-02T01:28:33;10.98;;;8.95;;
62673;SDS011;62269;47.594;17.638;2023-07-02T01:29:32;11.40;;;9.07;;
62673;SDS011;62269;47.594;17.638;2023-07-02T01:31:30;11.38;;;9.20;;
62673;SDS011;62269;47.594;17.638;2023-07-02T01:32:27;12.63;;;9.35;;
62673;SDS011;62269;47.594;17.638;2023-07-02T01:33:24;13.35;;;9.07;;
62673;SDS011;62269;47.594;17.638;2023-07-02T01:34:21;13.05;;;9.00;;
62673;SDS011;62269;47.594;17.638;2023-07-02T01:35:18;10.43;;;9.20;;
62673;SDS011;62269;47.594;17.638;2023-07-02T01:36:15;12.80;;;8.90;;
62673;SDS011;62269;47.594;17.638;2023-07-02T01:37:12;10.50;;;8.60;;
62673;SDS011;62269;47.594;17.638;2023-07-02T01:38:09;10.95;;;9.18;;
62673;SDS011;62269;47.594;17.638;2023-07-02T01:39:06;16.37;;;9.70;;
62673;SDS011;62269;47.594;17.638;2023-07-02T01:40:03;10.85;;;8.40;;
62673;SDS011;62269;47.594;17.638;2023-07-02T01:41:06;10.43;;;9.32;;
62673;SDS011;62269;47.594;17.638;2023-07-02T01:42:10;13.25;;;9.02;;
62673;SDS011;62269;47.594;17.638;2023-07-02T01:43:07;13.32;;;9.32;;
62673;SDS011;62269;47.594;17.638;2023-07-02T01:44:04;12.98;;;9.90;;
62673;SDS011;62269;47.594;17.638;2023-07-02T01:45:01;12.45;;;9.13;;
62673;SDS011;62269;47.594;17.638;2023-07-02T01:45:58;12.65;;;9.63;;
62673;SDS011;62269;47.594;17.638;2023-07-02T01:46:58;14.63;;;9.32;;
62673;SDS011;62269;47.594;17.638;2023-07-02T01:47:55;11.98;;;9.18;;
62673;SDS011;62269;47.594;17.638;2023-07-02T01:48:52;12.52;;;8.80;;
62673;SDS011;62269;47.594;17.638;2023-07-02T01:49:49;11.35;;;9.23;;
62673;SDS011;62269;47.594;17.638;2023-07-02T01:50:47;10.13;;;8.95;;
62673;SDS011;62269;47.594;17.638;2023-07-02T01:51:45;12.80;;;8.88;;
62673;SDS011;62269;47.594;17.638;2023-07-02T01:52:46;12.80;;;8.63;;
62673;SDS011;62269;47.594;17.638;2023-07-02T01:53:43;12.27;;;8.95;;
62673;SDS011;62269;47.594;17.638;2023-07-02T01:54:40;11.95;;;8.80;;
62673;SDS011;62269;47.594;17.638;2023-07-02T01:55:37;13.20;;;9.00;;
62673;SDS011;62269;47.594;17.638;2023-07-02T01:56:35;12.88;;;9.00;;
62673;SDS011;62269;47.594;17.638;2023-07-02T01:57:32;12.82;;;8.38;;
62673;SDS011;62269;47.594;17.638;2023-07-02T01:58:29;12.60;;;9.13;;
62673;SDS011;62269;47.594;17.638;2023-07-02T01:59:26;11.68;;;9.55;;
62673;SDS011;62269;47.594;17.638;2023-07-02T02:00:23;10.38;;;8.70;;
62673;SDS011;62269;47.594;17.638;2023-07-02T02:01:21;12.68;;;9.18;;
62673;SDS011;62269;47.594;17.638;2023-07-02T02:02:18;14.05;;;9.13;;
62673;SDS011;62269;47.594;17.638;2023-07-02T02:03:17;10.10;;;8.80;;
62673;SDS011;62269;47.594;17.638;2023-07-02T02:04:14;10.85;;;8.73;;
62673;SDS011;62269;47.594;17.638;2023-07-02T02:05:11;12.60;;;9.10;;
62673;SDS011;62269;47.594;17.638;2023-07-02T02:06:08;13.27;;;9.50;;
62673;SDS011;62269;47.594;17.638;2023-07-02T02:07:05;13.02;;;8.80;;
62673;SDS011;62269;47.594;17.638;2023-07-02T02:08:02;15.57;;;9.27;;
62673;SDS011;62269;47.594;17.638;2023-07-02T02:08:59;11.70;;;8.65;;
62673;SDS011;62269;47.594;17.638;2023-07-02T02:09:57;12.48;;;9.13;;
62673;SDS011;62269;47.594;17.638;2023-07-02T02:10:54;9.93;;;8.40;;
62673;SDS011;62269;47.594;17.638;2023-07-02T02:11:50;9.27;;;8.35;;
62673;SDS011;62269;47.594;17.638;2023-07-02T02:12:49;10.32;;;8.52;;
62673;SDS011;62269;47.594;17.638;2023-07-02T02:13:46;11.85;;;8.82;;
62673;SDS011;62269;47.594;17.638;2023-07-02T02:14:43;10.32;;;8.68;;
62673;SDS011;62269;47.594;17.638;2023-07-02T02:15:40;10.85;;;8.93;;
62673;SDS011;62269;47.594;17.638;2023-07-02T02:16:37;11.40;;;8.73;;
62673;SDS011;62269;47.594;17.638;2023-07-02T02:17:35;10.90;;;8.32;;
62673;SDS011;62269;47.594;17.638;2023-07-02T02:18:31;11.00;;;9.07;;
62673;SDS011;62269;47.594;17.638;2023-07-02T02:19:28;10.90;;;8.38;;
62673;SDS011;62269;47.594;17.638;2023-07-02T02:20:25;11.10;;;8.63;;
62673;SDS011;62269;47.594;17.638;2023-07-02T02:21:23;11.40;;;9.00;;
62673;SDS011;62269;47.594;17.638;2023-07-02T02:22:20;12.48;;;8.23;;
62673;SDS011;62269;47.594;17.638;2023-07-02T02:23:17;12.57;;;9.13;;
62673;SDS011;62269;47.594;17.638;2023-07-02T02:24:14;10.65;;;9.02;;
62673;SDS011;62269;47.594;17.638;2023-07-02T02:25:11;11.73;;;9.18;;
62673;SDS011;62269;47.594;17.638;2023-07-02T02:26:08;14.43;;;8.95;;
62673;SDS011;62269;47.594;17.638;2023-07-02T02:27:05;14.23;;;9.70;;
62673;SDS011;62269;47.594;17.638;2023-07-02T02:28:02;13.18;;;9.30;;
62673;SDS011;62269;47.594;17.638;2023-07-02T02:28:59;12.18;;;9.32;;
62673;SDS011;62269;47.594;17.638;2023-07-02T02:29:55;12.50;;;9.13;;
62673;SDS011;62269;47.594;17.638;2023-07-02T02:30:52;11.57;;;9.00;;
62673;SDS011;62269;47.594;17.638;2023-07-02T02:31:49;14.38;;;8.45;;
62673;SDS011;62269;47.594;17.638;2023-07-02T02:32:46;15.00;;;9.15;;
62673;SDS011;62269;47.594;17.638;2023-07-02T02:33:43;16.08;;;9.32;;
62673;SDS011;62269;47.594;17.638;2023-07-02T02:34:40;11.35;;;9.02;;
62673;SDS011;62269;47.594;17.638;2023-07-02T02:35:37;10.02;;;8.93;;
62673;SDS011;62269;47.594;17.638;2023-07-02T02:36:34;12.73;;;8.93;;
62673;SDS011;62269;47.594;17.638;2023-07-02T02:37:33;13.35;;;9.02;;
62673;SDS011;62269;47.594;17.638;2023-07-02T02:38:30;12.35;;;8.85;;
62673;SDS011;62269;47.594;17.638;2023-07-02T02:39:27;10.90;;;8.55;;
62673;SDS011;62269;47.594;17.638;2023-07-02T02:40:24;10.07;;;8.52;;
62673;SDS011;62269;47.594;17.638;2023-07-02T02:41:21;14.32;;;9.00;;
62673;SDS011;62269;47.594;17.638;2023-07-02T02:42:18;11.07;;;8.70;;
62673;SDS011;62269;47.594;17.638;2023-07-02T02:43:15;12.23;;;9.00;;
62673;SDS011;62269;47.594;17.638;2023-07-02T02:44:13;12.02;;;9.45;;
62673;SDS011;62269;47.594;17.638;2023-07-02T02:45:10;12.98;;;9.20;;
62673;SDS011;62269;47.594;17.638;2023-07-02T02:46:07;10.73;;;8.10;;
62673;SDS011;62269;47.594;17.638;2023-07-02T02:47:04;14.25;;;8.98;;
62673;SDS011;62269;47.594;17.638;2023-07-02T02:48:02;12.20;;;8.32;;
62673;SDS011;62269;47.594;17.638;2023-07-02T02:48:59;10.82;;;8.85;;
62673;SDS011;62269;47.594;17.638;2023-07-02T02:49:56;17.12;;;8.38;;
62673;SDS011;62269;47.594;17.638;2023-07-02T02:50:52;12.13;;;8.43;;
62673;SDS011;62269;47.594;17.638;2023-07-02T02:51:49;14.45;;;9.07;;
62673;SDS011;62269;47.594;17.638;2023-07-02T02:52:46;16.15;;;10.02;;
62673;SDS011;62269;47.594;17.638;2023-07-02T02:53:43;10.48;;;8.57;;
62673;SDS011;62269;47.594;17.638;2023-07-02T02:54:40;11.50;;;8.65;;
62673;SDS011;62269;47.594;17.638;2023-07-02T02:55:37;11.85;;;8.70;;
62673;SDS011;62269;47.594;17.638;2023-07-02T02:56:34;11.02;;;8.63;;
62673;SDS011;62269;47.594;17.638;2023-07-02T02:57:31;13.82;;;9.27;;
62673;SDS011;62269;47.594;17.638;2023-07-02T02:58:28;15.75;;;8.75;;
62673;SDS011;62269;47.594;17.638;2023-07-02T02:59:27;12.52;;;8.95;;
62673;SDS011;62269;47.594;17.638;2023-07-02T03:00:24;12.20;;;8.77;;
62673;SDS011;62269;47.594;17.638;2023-07-02T03:01:21;10.75;;;8.00;;
62673;SDS011;62269;47.594;17.638;2023-07-02T03:02:18;12.57;;;8.77;;
62673;SDS011;62269;47.594;17.638;2023-07-02T03:03:15;14.45;;;9.82;;
62673;SDS011;62269;47.594;17.638;2023-07-02T03:04:13;10.05;;;9.05;;
62673;SDS011;62269;47.594;17.638;2023-07-02T03:05:10;13.15;;;9.15;;
62673;SDS011;62269;47.594;17.638;2023-07-02T03:06:07;9.85;;;8.10;;
62673;SDS011;62269;47.594;17.638;2023-07-02T03:07:04;14.13;;;9.07;;
62673;SDS011;62269;47.594;17.638;2023-07-02T03:08:01;13.27;;;9.38;;
62673;SDS011;62269;47.594;17.638;2023-07-02T03:08:58;9.50;;;8.38;;
62673;SDS011;62269;47.594;17.638;2023-07-02T03:09:55;12.95;;;9.27;;
62673;SDS011;62269;47.594;17.638;2023-07-02T03:10:52;11.20;;;8.77;;
62673;SDS011;62269;47.594;17.638;2023-07-02T03:11:49;10.10;;;8.02;;
62673;SDS011;62269;47.594;17.638;2023-07-02T03:12:47;9.02;;;8.10;;
62673;SDS011;62269;47.594;17.638;2023-07-02T03:13:44;14.90;;;9.23;;
62673;SDS011;62269;47.594;17.638;2023-07-02T03:14:41;10.75;;;8.25;;
62673;SDS011;62269;47.594;17.638;2023-07-02T03:15:38;13.00;;;8.60;;
62673;SDS011;62269;47.594;17.638;2023-07-02T03:16:34;11.50;;;8.77;;
62673;SDS011;62269;47.594;17.638;2023-07-02T03:17:31;11.93;;;8.68;;
62673;SDS011;62269;47.594;17.638;2023-07-02T03:18:29;12.85;;;8.65;;
62673;SDS011;62269;47.594;17.638;2023-07-02T03:19:26;12.20;;;8.45;;
62673;SDS011;62269;47.594;17.638;2023-07-02T03:20:23;10.52;;;8.45;;
62673;SDS011;62269;47.594;17.638;2023-07-02T03:21:20;15.10;;;8.90;;
62673;SDS011;62269;47.594;17.638;2023-07-02T03:22:17;11.80;;;8.80;;
62673;SDS011;62269;47.594;17.638;2023-07-02T03:23:14;11.30;;;8.73;;
62673;SDS011;62269;47.594;17.638;2023-07-02T03:24:11;12.37;;;9.50;;
62673;SDS011;62269;47.594;17.638;2023-07-02T03:25:10;13.77;;;8.65;;
62673;SDS011;62269;47.594;17.638;2023-07-02T03:26:06;12.20;;;8.85;;
62673;SDS011;62269;47.594;17.638;2023-07-02T03:27:03;8.98;;;8.05;;
62673;SDS011;62269;47.594;17.638;2023-07-02T03:28:01;12.35;;;8.52;;
62673;SDS011;62269;47.594;17.638;2023-07-02T03:28:59;12.45;;;8.50;;
62673;SDS011;62269;47.594;17.638;2023-07-02T03:29:56;21.70;;;9.00;;
62673;SDS011;62269;47.594;17.638;2023-07-02T03:30:54;10.70;;;8.10;;
62673;SDS011;62269;47.594;17.638;2023-07-02T03:31:51;11.35;;;8.73;;
62673;SDS011;62269;47.594;17.638;2023-07-02T03:32:48;11.68;;;8.00;;
62673;SDS011;62269;47.594;17.638;2023-07-02T03:33:45;15.13;;;8.70;;
62673;SDS011;62269;47.594;17.638;2023-07-02T03:34:42;10.45;;;7.82;;
62673;SDS011;62269;47.594;17.638;2023-07-02T03:35:39;9.27;;;8.20;;
62673;SDS011;62269;47.594;17.638;2023-07-02T03:36:36;12.90;;;8.52;;
62673;SDS011;62269;47.594;17.638;2023-07-02T03:37:33;9.65;;;8.38;;
62673;SDS011;62269;47.594;17.638;2023-07-02T03:38:30;11.65;;;8.65;;
62673;SDS011;62269;47.594;17.638;2023-07-02T03:39:27;10.65;;;7.95;;
62673;SDS011;62269;47.594;17.638;2023-07-02T03:40:24;11.85;;;8.20;;
62673;SDS011;62269;47.594;17.638;2023-07-02T03:41:21;9.80;;;8.80;;
62673;SDS011;62269;47.594;17.638;2023-07-02T03:42:18;13.98;;;8.57;;
62673;SDS011;62269;47.594;17.638;2023-07-02T03:43:14;9.75;;;8.57;;
62673;SDS011;62269;47.594;17.638;2023-07-02T03:44:11;9.77;;;7.85;;
62673;SDS011;62269;47.594;17.638;2023-07-02T03:45:09;11.68;;;8.23;;
62673;SDS011;62269;47.594;17.638;2023-07-02T03:46:06;10.20;;;9.10;;
62673;SDS011;62269;47.594;17.638;2023-07-02T03:47:03;12.65;;;8.50;;
62673;SDS011;62269;47.594;17.638;2023-07-02T03:48:00;16.92;;;8.80;;
62673;SDS011;62269;47.594;17.638;2023-07-02T03:48:58;10.48;;;8.63;;
62673;SDS011;62269;47.594;17.638;2023-07-02T03:49:55;9.38;;;7.93;;
62673;SDS011;62269;47.594;17.638;2023-07-02T03:50:51;11.48;;;8.05;;
62673;SDS011;62269;47.594;17.638;2023-07-02T03:51:48;8.75;;;7.45;;
62673;SDS011;62269;47.594;17.638;2023-07-02T03:52:45;15.20;;;9.18;;
62673;SDS011;62269;47.594;17.638;2023-07-02T03:53:42;14.10;;;8.63;;
62673;SDS011;62269;47.594;17.638;2023-07-02T03:54:39;10.02;;;8.18;;
62673;SDS011;62269;47.594;17.638;2023-07-02T03:55:36;10.30;;;7.75;;
62673;SDS011;62269;47.594;17.638;2023-07-02T03:56:35;14.93;;;7.95;;
62673;SDS011;62269;47.594;17.638;2023-07-02T03:57:32;12.00;;;7.85;;
62673;SDS011;62269;47.594;17.638;2023-07-02T03:58:29;9.15;;;7.97;;
62673;SDS011;62269;47.594;17.638;2023-07-02T03:59:26;12.13;;;7.95;;
62673;SDS011;62269;47.594;17.638;2023-07-02T04:00:23;11.68;;;7.85;;
62673;SDS011;62269;47.594;17.638;2023-07-02T04:01:20;12.50;;;8.20;;
62673;SDS011;62269;47.594;17.638;2023-07-02T04:02:16;9.82;;;8.32;;
62673;SDS011;62269;47.594;17.638;2023-07-02T04:03:14;9.95;;;8.38;;
62673;SDS011;62269;47.594;17.638;2023-07-02T04:04:11;9.68;;;7.93;;
62673;SDS011;62269;47.594;17.638;2023-07-02T04:05:08;10.43;;;7.95;;
62673;SDS011;62269;47.594;17.638;2023-07-02T04:06:05;10.10;;;8.35;;
62673;SDS011;62269;47.594;17.638;2023-07-02T04:07:02;9.70;;;7.72;;
62673;SDS011;62269;47.594;17.638;2023-07-02T04:07:59;9.85;;;7.95;;
62673;SDS011;62269;47.594;17.638;2023-07-02T04:08:56;9.38;;;7.90;;
62673;SDS011;62269;47.594;17.638;2023-07-02T04:09:53;9.35;;;8.32;;
62673;SDS011;62269;47.594;17.638;2023-07-02T04:10:50;10.70;;;7.70;;
62673;SDS011;62269;47.594;17.638;2023-07-02T04:11:47;12.15;;;7.93;;
62673;SDS011;62269;47.594;17.638;2023-07-02T04:12:44;9.05;;;8.05;;
62673;SDS011;62269;47.594;17.638;2023-07-02T04:13:41;9.40;;;7.85;;
62673;SDS011;62269;47.594;17.638;2023-07-02T04:14:38;11.38;;;7.78;;
62673;SDS011;62269;47.594;17.638;2023-07-02T04:15:35;9.82;;;8.25;;
62673;SDS011;62269;47.594;17.638;2023-07-02T04:16:31;9.10;;;7.60;;
62673;SDS011;62269;47.594;17.638;2023-07-02T04:17:29;9.27;;;8.27;;
62673;SDS011;62269;47.594;17.638;2023-07-02T04:18:26;12.65;;;7.82;;
62673;SDS011;62269;47.594;17.638;2023-07-02T04:19:23;10.07;;;7.65;;
62673;SDS011;62269;47.594;17.638;2023-07-02T04:20:20;10.80;;;8.23;;
62673;SDS011;62269;47.594;17.638;2023-07-02T04:21:17;9.18;;;7.65;;
62673;SDS011;62269;47.594;17.638;2023-07-02T04:22:14;8.48;;;7.57;;
62673;SDS011;62269;47.594;17.638;2023-07-02T04:23:11;11.90;;;8.15;;
62673;SDS011;62269;47.594;17.638;2023-07-02T04:24:08;13.50;;;7.60;;
62673;SDS011;62269;47.594;17.638;2023-07-02T04:25:05;8.75;;;7.53;;
62673;SDS011;62269;47.594;17.638;2023-07-02T04:26:19;9.15;;;7.68;;
62673;SDS011;62269;47.594;17.638;2023-07-02T04:27:37;9.52;;;7.78;;
62673;SDS011;62269;47.594;17.638;2023-07-02T04:28:46;12.57;;;7.93;;
62673;SDS011;62269;47.594;17.638;2023-07-02T04:29:44;8.70;;;7.37;;
62673;SDS011;62269;47.594;17.638;2023-07-02T04:30:41;11.18;;;7.32;;
62673;SDS011;62269;47.594;17.638;2023-07-02T04:31:38;11.48;;;7.43;;
62673;SDS011;62269;47.594;17.638;2023-07-02T04:32:36;11.70;;;7.70;;
62673;SDS011;62269;47.594;17.638;2023-07-02T04:33:33;12.37;;;7.35;;
62673;SDS011;62269;47.594;17.638;2023-07-02T04:34:32;8.05;;;6.87;;
62673;SDS011;62269;47.594;17.638;2023-07-02T04:35:30;9.45;;;7.80;;
62673;SDS011;62269;47.594;17.638;2023-07-02T04:36:27;10.65;;;7.47;;
62673;SDS011;62269;47.594;17.638;2023-07-02T04:37:25;9.02;;;7.15;;
62673;SDS011;62269;47.594;17.638;2023-07-02T04:38:21;19.27;;;8.18;;
62673;SDS011;62269;47.594;17.638;2023-07-02T04:39:18;9.15;;;7.65;;
62673;SDS011;62269;47.594;17.638;2023-07-02T04:40:15;8.80;;;7.68;;
62673;SDS011;62269;47.594;17.638;2023-07-02T04:41:12;14.43;;;8.02;;
62673;SDS011;62269;47.594;17.638;2023-07-02T04:42:09;8.70;;;7.30;;
62673;SDS011;62269;47.594;17.638;2023-07-02T04:43:06;14.52;;;7.28;;
62673;SDS011;62269;47.594;17.638;2023-07-02T04:44:03;13.65;;;7.22;;
62673;SDS011;62269;47.594;17.638;2023-07-02T04:45:00;9.52;;;7.30;;
62673;SDS011;62269;47.594;17.638;2023-07-02T04:46:00;11.40;;;7.25;;
62673;SDS011;62269;47.594;17.638;2023-07-02T04:46:58;7.80;;;6.57;;
62673;SDS011;62269;47.594;17.638;2023-07-02T04:47:55;8.80;;;6.90;;
62673;SDS011;62269;47.594;17.638;2023-07-02T04:48:52;7.53;;;6.03;;
62673;SDS011;62269;47.594;17.638;2023-07-02T04:49:49;9.63;;;6.57;;
62673;SDS011;62269;47.594;17.638;2023-07-02T04:50:46;9.18;;;5.87;;
62673;SDS011;62269;47.594;17.638;2023-07-02T04:51:44;6.95;;;6.25;;
62673;SDS011;62269;47.594;17.638;2023-07-02T04:52:41;8.90;;;6.32;;
62673;SDS011;62269;47.594;17.638;2023-07-02T04:53:38;10.55;;;7.10;;
62673;SDS011;62269;47.594;17.638;2023-07-02T04:54:34;7.87;;;6.70;;
62673;SDS011;62269;47.594;17.638;2023-07-02T04:55:31;9.57;;;6.03;;
62673;SDS011;62269;47.594;17.638;2023-07-02T04:56:28;8.95;;;5.87;;
62673;SDS011;62269;47.594;17.638;2023-07-02T04:57:25;17.60;;;6.70;;
62673;SDS011;62269;47.594;17.638;2023-07-02T04:58:22;9.73;;;6.10;;
62673;SDS011;62269;47.594;17.638;2023-07-02T04:59:22;7.20;;;5.87;;
62673;SDS011;62269;47.594;17.638;2023-07-02T05:00:19;6.57;;;5.85;;
62673;SDS011;62269;47.594;17.638;2023-07-02T05:01:18;9.20;;;5.95;;
62673;SDS011;62269;47.594;17.638;2023-07-02T05:02:15;10.85;;;6.60;;
62673;SDS011;62269;47.594;17.638;2023-07-02T05:03:12;11.00;;;5.85;;
62673;SDS011;62269;47.594;17.638;2023-07-02T05:04:10;7.43;;;6.10;;
62673;SDS011;62269;47.594;17.638;2023-07-02T05:05:10;8.80;;;6.30;;
62673;SDS011;62269;47.594;17.638;2023-07-02T05:06:07;11.30;;;5.85;;
62673;SDS011;62269;47.594;17.638;2023-07-02T05:07:04;9.52;;;6.55;;
62673;SDS011;62269;47.594;17.638;2023-07-02T05:08:01;7.20;;;5.97;;
62673;SDS011;62269;47.594;17.638;2023-07-02T05:09:01;8.57;;;6.05;;
62673;SDS011;62269;47.594;17.638;2023-07-02T05:09:58;7.68;;;5.93;;
62673;SDS011;62269;47.594;17.638;2023-07-02T05:10:55;14.50;;;6.10;;
62673;SDS011;62269;47.594;17.638;2023-07-02T05:11:52;10.30;;;6.43;;
62673;SDS011;62269;47.594;17.638;2023-07-02T05:12:49;12.37;;;6.25;;
62673;SDS011;62269;47.594;17.638;2023-07-02T05:13:45;9.52;;;6.43;;
62673;SDS011;62269;47.594;17.638;2023-07-02T05:14:42;7.80;;;5.90;;
62673;SDS011;62269;47.594;17.638;2023-07-02T05:15:39;7.12;;;6.05;;
62673;SDS011;62269;47.594;17.638;2023-07-02T05:16:37;9.27;;;6.68;;
62673;SDS011;62269;47.594;17.638;2023-07-02T05:17:35;7.30;;;6.60;;
62673;SDS011;62269;47.594;17.638;2023-07-02T05:18:32;9.02;;;6.30;;
62673;SDS011;62269;47.594;17.638;2023-07-02T05:19:29;7.72;;;6.10;;
62673;SDS011;62269;47.594;17.638;2023-07-02T05:20:26;7.82;;;6.30;;
62673;SDS011;62269;47.594;17.638;2023-07-02T05:21:23;8.98;;;6.40;;
62673;SDS011;62269;47.594;17.638;2023-07-02T05:22:20;7.57;;;5.72;;
62673;SDS011;62269;47.594;17.638;2023-07-02T05:23:17;8.15;;;6.45;;
62673;SDS011;62269;47.594;17.638;2023-07-02T05:24:13;7.35;;;6.25;;
62673;SDS011;62269;47.594;17.638;2023-07-02T05:25:10;9.73;;;6.37;;
62673;SDS011;62269;47.594;17.638;2023-07-02T05:26:07;9.35;;;6.10;;
62673;SDS011;62269;47.594;17.638;2023-07-02T05:27:04;8.27;;;6.60;;
62673;SDS011;62269;47.594;17.638;2023-07-02T05:28:01;9.43;;;6.62;;
62673;SDS011;62269;47.594;17.638;2023-07-02T05:28:58;7.93;;;6.15;;
62673;SDS011;62269;47.594;17.638;2023-07-02T05:29:55;6.68;;;6.00;;
62673;SDS011;62269;47.594;17.638;2023-07-02T05:30:52;10.23;;;6.20;;
62673;SDS011;62269;47.594;17.638;2023-07-02T05:31:49;7.55;;;6.30;;
62673;SDS011;62269;47.594;17.638;2023-07-02T05:32:46;7.70;;;5.85;;
62673;SDS011;62269;47.594;17.638;2023-07-02T05:33:43;9.63;;;5.82;;
62673;SDS011;62269;47.594;17.638;2023-07-02T05:34:40;8.65;;;5.78;;
62673;SDS011;62269;47.594;17.638;2023-07-02T05:35:37;9.70;;;6.05;;
62673;SDS011;62269;47.594;17.638;2023-07-02T05:36:34;11.00;;;6.22;;
62673;SDS011;62269;47.594;17.638;2023-07-02T05:37:31;9.15;;;5.93;;
62673;SDS011;62269;47.594;17.638;2023-07-02T05:38:28;10.18;;;6.80;;
62673;SDS011;62269;47.594;17.638;2023-07-02T05:39:24;8.80;;;6.03;;
62673;SDS011;62269;47.594;17.638;2023-07-02T05:40:21;9.77;;;6.20;;